createdAt,value
2023-04-28T00:00:56.276Z,5.30
2023-04-28T00:03:25.345Z,3.70
2023-04-28T00:05:53.385Z,5.15
2023-04-28T00:08:21.672Z,2.45
2023-04-28T00:10:48.349Z,5.05
2023-04-28T00:13:17.449Z,5.63
2023-04-28T00:15:44.145Z,5.03
2023-04-28T00:18:13.277Z,4.07
2023-04-28T00:20:42.805Z,2.75
2023-04-28T00:23:09.537Z,3.33
2023-04-28T00:25:38.754Z,3.30
2023-04-28T00:28:05.413Z,3.50
2023-04-28T00:30:32.134Z,2.85
2023-04-28T00:32:58.901Z,3.90
2023-04-28T00:35:25.589Z,4.43
2023-04-28T00:37:52.280Z,6.15
2023-04-28T00:40:21.501Z,8.38
2023-04-28T00:42:48.228Z,5.10
2023-04-28T00:45:17.314Z,2.95
2023-04-28T00:47:44.314Z,4.03
2023-04-28T00:50:11.393Z,3.58
2023-04-28T00:52:39.540Z,5.32
2023-04-28T00:55:07.540Z,2.85
2023-04-28T00:57:39.375Z,4.78
2023-04-28T01:00:06.782Z,3.83
2023-04-28T01:02:34.594Z,4.63
2023-04-28T01:05:02.444Z,3.50
2023-04-28T01:07:29.420Z,6.22
2023-04-28T01:09:56.583Z,4.88
2023-04-28T01:12:25.718Z,4.90
2023-04-28T01:14:54.624Z,5.32
2023-04-28T01:17:21.356Z,7.35
2023-04-28T01:19:48.002Z,5.53
2023-04-28T01:22:16.396Z,6.20
2023-04-28T01:24:45.823Z,5.90
2023-04-28T01:27:12.538Z,5.10
2023-04-28T01:29:39.192Z,5.07
2023-04-28T01:32:05.928Z,6.28
2023-04-28T01:34:32.601Z,4.95
2023-04-28T01:36:59.262Z,4.88
2023-04-28T01:39:25.901Z,4.70
2023-04-28T01:41:55.065Z,8.63
2023-04-28T01:44:21.783Z,3.13
2023-04-28T01:46:48.480Z,5.40
2023-04-28T01:49:15.558Z,4.70
2023-04-28T01:51:56.759Z,4.70
2023-04-28T01:54:41.526Z,3.97
2023-04-28T01:57:10.372Z,5.38
2023-04-28T01:59:37.130Z,6.22
2023-04-28T02:02:03.812Z,4.28
2023-04-28T02:04:30.739Z,5.10
2023-04-28T02:06:57.651Z,2.90
2023-04-28T02:09:24.427Z,6.55
2023-04-28T02:11:51.135Z,5.00
2023-04-28T02:14:20.488Z,3.92
2023-04-28T02:16:47.144Z,4.60
2023-04-28T02:19:16.175Z,6.82
2023-04-28T02:21:43.468Z,4.13
2023-04-28T02:24:10.253Z,3.08
2023-04-28T02:26:37.087Z,4.90
2023-04-28T02:29:04.465Z,9.80
2023-04-28T02:31:33.856Z,4.15
2023-04-28T02:34:00.627Z,4.70
2023-04-28T02:36:29.453Z,6.60
2023-04-28T02:38:58.226Z,6.80
2023-04-28T02:41:25.004Z,6.25
2023-04-28T02:43:51.807Z,4.75
2023-04-28T02:46:18.517Z,3.92
2023-04-28T02:48:47.677Z,4.75
2023-04-28T02:51:14.441Z,6.10
2023-04-28T02:53:41.200Z,4.80
2023-04-28T02:56:07.947Z,4.78
2023-04-28T02:58:34.617Z,5.65
2023-04-28T03:01:01.582Z,4.93
2023-04-28T03:03:28.530Z,6.03
2023-04-28T03:05:57.462Z,4.60
2023-04-28T03:08:26.865Z,7.57
2023-04-28T03:10:53.633Z,6.95
2023-04-28T03:13:22.934Z,5.97
2023-04-28T03:15:52.422Z,6.28
2023-04-28T03:18:22.431Z,4.60
2023-04-28T03:23:16.495Z,5.95
2023-04-28T03:25:48.154Z,7.28
2023-04-28T03:28:17.202Z,4.20
2023-04-28T03:30:46.354Z,4.80
2023-04-28T03:33:13.010Z,5.38
2023-04-28T03:35:39.654Z,5.50
2023-04-28T03:38:06.975Z,6.68
2023-04-28T03:40:33.671Z,4.35
2023-04-28T03:43:01.231Z,5.40
2023-04-28T03:45:31.021Z,7.75
2023-04-28T03:48:00.071Z,9.35
2023-04-28T03:50:29.006Z,5.23
2023-04-28T03:52:55.803Z,6.35
2023-04-28T03:55:22.597Z,6.25
2023-04-28T03:57:49.379Z,6.28
2023-04-28T04:00:18.554Z,5.43
2023-04-28T04:02:45.462Z,5.03
2023-04-28T04:05:12.441Z,6.20
2023-04-28T04:07:39.229Z,6.18
2023-04-28T04:10:06.617Z,5.97
2023-04-28T04:12:33.260Z,7.28
2023-04-28T04:15:02.146Z,3.90
2023-04-28T04:17:28.967Z,6.85
2023-04-28T04:19:55.770Z,4.18
2023-04-28T04:22:24.990Z,4.22
2023-04-28T04:24:51.700Z,7.15
2023-04-28T04:27:21.597Z,5.15
2023-04-28T04:32:15.026Z,3.85
2023-04-28T04:34:44.844Z,6.85
2023-04-28T04:39:41.901Z,3.15
2023-04-28T04:42:23.342Z,4.65
2023-04-28T04:44:53.983Z,4.80
2023-04-28T04:47:20.647Z,4.78
2023-04-28T04:49:49.528Z,6.97
2023-04-28T04:52:16.340Z,6.32
2023-04-28T04:54:43.004Z,7.28
2023-04-28T04:57:09.988Z,4.38
2023-04-28T04:59:36.775Z,4.32
2023-04-28T05:02:03.592Z,5.13
2023-04-28T05:04:30.631Z,7.15
2023-04-28T05:07:00.090Z,4.45
2023-04-28T05:09:26.846Z,6.28
2023-04-28T05:11:53.536Z,4.30
2023-04-28T05:14:20.341Z,3.90
2023-04-28T05:16:54.564Z,5.72
2023-04-28T05:19:23.652Z,6.47
2023-04-28T05:21:52.629Z,6.63
2023-04-28T05:24:23.188Z,5.63
2023-04-28T05:26:54.176Z,5.20
2023-04-28T05:29:23.749Z,5.78
2023-04-28T05:31:50.526Z,5.50
2023-04-28T05:34:17.564Z,5.63
2023-04-28T05:36:44.970Z,5.18
2023-04-28T05:39:11.624Z,3.83
2023-04-28T05:41:38.299Z,3.90
2023-04-28T05:44:05.958Z,9.75
2023-04-28T05:46:34.840Z,6.47
2023-04-28T05:49:01.642Z,4.30
2023-04-28T05:51:28.482Z,5.47
2023-04-28T05:53:55.217Z,6.00
2023-04-28T05:56:21.953Z,5.07
2023-04-28T05:58:50.519Z,5.95
2023-04-28T06:01:17.623Z,5.75
2023-04-28T06:03:45.160Z,5.13
2023-04-28T06:06:13.004Z,4.72
2023-04-28T06:08:39.884Z,4.35
2023-04-28T06:11:06.934Z,5.22
2023-04-28T06:13:33.665Z,3.55
2023-04-28T06:16:00.490Z,6.53
2023-04-28T06:18:27.388Z,6.78
2023-04-28T06:20:56.573Z,4.03
2023-04-28T06:23:23.253Z,5.20
2023-04-28T06:25:52.533Z,4.80
2023-04-28T06:28:21.645Z,4.53
2023-04-28T06:30:48.379Z,6.47
2023-04-28T06:33:15.028Z,3.72
2023-04-28T06:35:41.786Z,5.75
2023-04-28T06:38:11.131Z,6.05
2023-04-28T06:40:40.754Z,5.22
2023-04-28T06:43:09.679Z,5.65
2023-04-28T06:45:38.595Z,5.35
2023-04-28T06:48:06.120Z,4.93
2023-04-28T06:50:32.848Z,4.57
2023-04-28T06:53:02.738Z,3.38
2023-04-28T06:57:58.455Z,4.82
2023-04-28T07:00:25.341Z,4.13
2023-04-28T07:02:52.254Z,4.35
2023-04-28T07:05:19.079Z,3.20
2023-04-28T07:07:45.987Z,4.25
2023-04-28T07:10:13.313Z,3.47
2023-04-28T07:12:42.509Z,6.97
2023-04-28T07:15:10.379Z,5.60
2023-04-28T07:17:37.922Z,3.90
2023-04-28T07:20:05.871Z,7.72
2023-04-28T07:22:32.862Z,7.28
2023-04-28T07:25:02.117Z,7.50
2023-04-28T07:27:28.810Z,5.75
2023-04-28T07:29:57.636Z,7.45
2023-04-28T07:32:27.003Z,5.65
2023-04-28T07:34:53.695Z,3.80
2023-04-28T07:37:20.452Z,7.85
2023-04-28T07:39:47.366Z,8.55
2023-04-28T07:42:14.123Z,4.65
2023-04-28T07:44:43.508Z,5.05
2023-04-28T07:47:12.468Z,5.75
2023-04-28T07:49:41.668Z,5.30
2023-04-28T07:52:08.347Z,4.47
2023-04-28T07:54:37.004Z,4.90
2023-04-28T07:57:06.028Z,5.13
2023-04-28T07:59:36.240Z,6.43
2023-04-28T08:02:02.943Z,4.70
2023-04-28T08:04:32.269Z,4.93
2023-04-28T08:07:00.726Z,3.95
2023-04-28T08:09:27.547Z,4.10
2023-04-28T08:11:54.383Z,6.43
2023-04-28T08:14:21.593Z,4.78
2023-04-28T08:16:48.471Z,6.75
2023-04-28T08:19:15.248Z,4.55
2023-04-28T08:21:42.056Z,5.07
2023-04-28T08:24:10.723Z,3.88
2023-04-28T08:26:38.473Z,4.25
2023-04-28T08:29:05.344Z,3.40
2023-04-28T08:31:32.385Z,5.43
2023-04-28T08:33:59.137Z,4.47
2023-04-28T08:36:29.017Z,5.10
2023-04-28T08:38:57.747Z,4.75
2023-04-28T08:41:29.969Z,3.53
2023-04-28T08:43:58.346Z,5.30
2023-04-28T08:46:28.162Z,3.75
2023-04-28T08:49:04.335Z,3.65
2023-04-28T08:51:38.186Z,5.50
2023-04-28T08:56:37.941Z,4.22
2023-04-28T08:59:05.352Z,4.05
2023-04-28T09:01:32.749Z,5.00
2023-04-28T09:04:03.270Z,4.13
2023-04-28T09:06:38.168Z,5.28
2023-04-28T09:09:25.073Z,3.65
2023-04-28T09:12:03.760Z,3.08
2023-04-28T09:14:35.545Z,5.10
2023-04-28T09:17:03.336Z,5.85
2023-04-28T09:19:36.103Z,5.97
2023-04-28T09:22:13.750Z,6.75
2023-04-28T09:24:50.379Z,4.60
2023-04-28T09:27:25.876Z,3.97
2023-04-28T09:29:53.879Z,6.45
2023-04-28T09:32:24.017Z,4.72
2023-04-28T09:34:56.864Z,5.35
2023-04-28T09:37:25.168Z,5.18
2023-04-28T09:39:53.989Z,4.07
2023-04-28T09:42:36.365Z,4.10
2023-04-28T09:45:04.695Z,6.90
2023-04-28T09:47:35.230Z,5.40
2023-04-28T09:50:07.102Z,4.72
2023-04-28T09:52:35.020Z,7.85
2023-04-28T09:55:06.925Z,6.05
2023-04-28T09:57:35.519Z,4.65
2023-04-28T10:00:06.168Z,4.50
2023-04-28T10:05:10.959Z,5.82
2023-04-28T10:07:39.219Z,3.50
2023-04-28T10:10:07.589Z,3.50
2023-04-28T10:12:38.276Z,4.00
2023-04-28T10:15:06.340Z,4.72
2023-04-28T10:17:35.123Z,3.65
2023-04-28T10:20:03.487Z,3.03
2023-04-28T10:22:40.963Z,4.88
2023-04-28T10:25:34.103Z,2.60
2023-04-28T10:28:04.649Z,3.53
2023-04-28T10:30:31.540Z,4.03
2023-04-28T10:33:13.535Z,2.90
2023-04-28T10:35:42.803Z,4.32
2023-04-28T10:38:17.634Z,3.45
2023-04-28T10:40:45.094Z,3.13
2023-04-28T10:43:39.309Z,3.55
2023-04-28T10:46:07.840Z,3.10
2023-04-28T10:48:35.006Z,4.47
2023-04-28T10:51:04.536Z,6.43
2023-04-28T10:53:49.064Z,3.53
2023-04-28T10:56:24.882Z,3.95
2023-04-28T10:58:52.372Z,5.20
2023-04-28T11:01:19.356Z,4.85
2023-04-28T11:04:04.676Z,3.70
2023-04-28T11:06:40.672Z,5.45
2023-04-28T11:09:16.291Z,4.20
2023-04-28T11:11:57.653Z,7.10
2023-04-28T11:14:37.669Z,3.50
2023-04-28T11:17:13.274Z,4.90
2023-04-28T11:19:45.346Z,7.63
2023-04-28T11:22:16.559Z,6.70
2023-04-28T11:25:02.537Z,4.35
2023-04-28T11:27:33.873Z,3.45
2023-04-28T11:30:01.606Z,4.55
2023-04-28T11:32:33.309Z,4.30
2023-04-28T11:35:00.299Z,2.85
2023-04-28T11:37:27.499Z,3.78
2023-04-28T11:39:54.616Z,2.50
2023-04-28T11:42:21.410Z,3.08
2023-04-28T11:44:55.229Z,3.58
2023-04-28T11:47:37.005Z,4.25
2023-04-28T11:50:04.094Z,2.78
2023-04-28T11:52:33.064Z,2.33
2023-04-28T11:55:02.250Z,1.83
2023-04-28T11:57:29.186Z,3.95
2023-04-28T12:00:14.725Z,1.85
2023-04-28T12:02:42.158Z,2.30
2023-04-28T12:05:11.946Z,2.10
2023-04-28T12:10:15.680Z,2.20
2023-04-28T12:12:50.763Z,1.70
2023-04-28T12:15:20.952Z,2.03
2023-04-28T12:17:48.694Z,2.25
2023-04-28T12:20:36.885Z,3.08
2023-04-28T12:23:07.363Z,2.10
2023-04-28T12:25:43.640Z,2.38
2023-04-28T12:30:47.274Z,1.90
2023-04-28T12:33:27.818Z,1.80
2023-04-28T12:35:58.196Z,1.77
2023-04-28T12:38:30.299Z,2.00
2023-04-28T12:40:57.320Z,1.70
2023-04-28T12:43:24.489Z,1.70
2023-04-28T12:45:55.180Z,2.28
2023-04-28T12:48:25.137Z,2.80
2023-04-28T12:50:54.441Z,1.92
2023-04-28T12:53:23.684Z,1.67
2023-04-28T12:55:50.416Z,1.70
2023-04-28T12:58:19.259Z,1.40
2023-04-28T13:00:45.899Z,2.20
2023-04-28T13:03:15.806Z,2.28
2023-04-28T13:05:42.772Z,1.75
2023-04-28T13:08:10.133Z,1.83
2023-04-28T13:10:39.165Z,1.70
2023-04-28T13:13:07.984Z,1.80
2023-04-28T13:15:38.795Z,1.57
2023-04-28T13:18:06.329Z,1.80
2023-04-28T13:20:33.038Z,1.35
2023-04-28T13:22:59.722Z,1.63
2023-04-28T13:25:26.811Z,2.17
2023-04-28T13:27:56.416Z,1.88
2023-04-28T13:32:52.363Z,1.40
2023-04-28T13:35:20.903Z,1.60
2023-04-28T13:37:48.094Z,1.25
2023-04-28T13:40:15.229Z,2.45
2023-04-28T13:42:42.424Z,2.13
2023-04-28T13:45:12.178Z,1.60
2023-04-28T13:47:39.612Z,1.23
2023-04-28T13:50:07.873Z,1.60
2023-04-28T13:52:37.111Z,1.63
2023-04-28T13:55:03.991Z,1.63
2023-04-28T13:57:30.806Z,1.27
2023-04-28T13:59:57.547Z,1.90
2023-04-28T14:02:24.779Z,1.95
2023-04-28T14:04:54.566Z,4.45
2023-04-28T14:07:24.292Z,2.55
2023-04-28T14:09:51.479Z,1.60
2023-04-28T14:12:18.559Z,1.95
2023-04-28T14:14:49.245Z,2.03
2023-04-28T14:17:16.687Z,2.15
2023-04-28T14:19:45.611Z,1.73
2023-04-28T14:22:12.685Z,2.05
2023-04-28T14:24:39.812Z,2.05
2023-04-28T14:27:09.849Z,3.08
2023-04-28T14:29:36.983Z,1.60
2023-04-28T14:32:04.086Z,1.65
2023-04-28T14:34:31.665Z,1.88
2023-04-28T14:37:01.108Z,1.63
2023-04-28T14:41:57.791Z,1.63
2023-04-28T14:44:25.243Z,1.63
2023-04-28T14:46:53.327Z,1.67
2023-04-28T14:49:20.486Z,2.40
2023-04-28T14:51:47.604Z,2.55
2023-04-28T14:54:14.697Z,2.33
2023-04-28T14:56:41.803Z,1.80
2023-04-28T14:59:08.860Z,1.88
2023-04-28T15:01:35.991Z,2.70
2023-04-28T15:04:04.057Z,1.75
2023-04-28T15:06:34.081Z,3.58
2023-04-28T15:09:01.248Z,2.83
2023-04-28T15:11:30.935Z,1.88
2023-04-28T15:13:58.024Z,2.92
2023-04-28T15:16:25.445Z,1.98
2023-04-28T15:18:52.582Z,1.98
2023-04-28T15:21:19.726Z,1.85
2023-04-28T15:23:49.116Z,3.58
2023-04-28T15:26:16.363Z,1.60
2023-04-28T15:28:43.459Z,1.40
2023-04-28T15:31:10.160Z,2.25
2023-04-28T15:33:37.416Z,2.90
2023-04-28T15:36:07.503Z,1.30
2023-04-28T15:38:34.855Z,1.20
2023-04-28T15:41:04.074Z,2.85
2023-04-28T15:43:30.835Z,0.93
2023-04-28T15:46:00.919Z,1.10
2023-04-28T15:48:27.652Z,0.93
2023-04-28T15:50:54.370Z,1.00
2023-04-28T15:53:22.357Z,1.73
2023-04-28T15:55:51.757Z,2.72
2023-04-28T16:00:46.125Z,0.60
2023-04-28T16:03:15.620Z,6.63
2023-04-28T16:05:45.646Z,0.70
2023-04-28T16:08:14.554Z,0.77
2023-04-28T16:10:42.402Z,1.38
2023-04-28T16:13:12.879Z,1.45
2023-04-28T16:15:41.671Z,1.65
2023-04-28T16:18:09.326Z,0.95
2023-04-28T16:20:36.801Z,1.30
2023-04-28T16:23:05.748Z,0.57
2023-04-28T16:25:54.033Z,1.55
2023-04-28T16:28:21.161Z,1.05
2023-04-28T16:30:49.426Z,0.80
2023-04-28T16:33:16.615Z,0.65
2023-04-28T16:35:43.791Z,1.77
2023-04-28T16:38:11.860Z,1.42
2023-04-28T16:40:38.991Z,2.38
2023-04-28T16:43:06.224Z,0.90
2023-04-28T16:45:33.517Z,2.33
2023-04-28T16:48:03.106Z,1.30
2023-04-28T16:50:32.458Z,3.28
2023-04-28T16:53:02.012Z,2.53
2023-04-28T16:57:58.377Z,2.88
2023-04-28T17:00:25.744Z,2.28
2023-04-28T17:02:55.243Z,2.90
2023-04-28T17:07:49.103Z,2.20
2023-04-28T17:10:18.169Z,2.70
2023-04-28T17:12:45.571Z,1.70
2023-04-28T17:15:17.462Z,3.10
2023-04-28T17:17:49.978Z,2.13
2023-04-28T17:20:20.158Z,1.83
2023-04-28T17:22:47.760Z,1.38
2023-04-28T17:25:17.068Z,1.30
2023-04-28T17:27:43.833Z,3.13
2023-04-28T17:30:14.144Z,1.30
2023-04-28T17:32:41.346Z,3.33
2023-04-28T17:35:08.840Z,1.60
2023-04-28T17:37:37.027Z,1.85
2023-04-28T17:40:04.641Z,2.45
2023-04-28T17:42:34.559Z,1.90
2023-04-28T17:45:04.878Z,3.22
2023-04-28T17:47:32.443Z,2.30
2023-04-28T17:50:01.866Z,1.50
2023-04-28T17:52:31.346Z,1.40
2023-04-28T17:54:58.040Z,2.65
2023-04-28T17:57:24.754Z,2.17
2023-04-28T17:59:51.613Z,1.00
2023-04-28T18:02:20.777Z,1.55
2023-04-28T18:04:47.618Z,1.70
2023-04-28T18:07:16.816Z,1.17
2023-04-28T18:09:45.922Z,1.13
2023-04-28T18:12:15.023Z,1.23
2023-04-28T18:14:44.493Z,0.90
2023-04-28T18:17:13.458Z,0.70
2023-04-28T18:19:42.407Z,1.10
2023-04-28T18:22:09.111Z,0.90
2023-04-28T18:24:38.115Z,1.05
2023-04-28T18:27:04.802Z,2.47
2023-04-28T18:29:33.684Z,1.10
2023-04-28T18:32:00.436Z,1.10
2023-04-28T18:34:27.284Z,1.80
2023-04-28T18:36:53.972Z,1.02
2023-04-28T18:39:20.665Z,1.67
2023-04-28T18:41:47.444Z,0.90
2023-04-28T18:44:14.402Z,1.20
2023-04-28T18:46:43.552Z,2.38
2023-04-28T18:49:10.314Z,1.30
2023-04-28T18:51:38.562Z,1.20
2023-04-28T18:54:05.763Z,1.00
2023-04-28T18:56:32.528Z,0.95
2023-04-28T18:59:02.713Z,0.95
2023-04-28T19:01:31.827Z,1.35
2023-04-28T19:03:58.841Z,1.95
2023-04-28T19:06:26.008Z,1.55
2023-04-28T19:08:53.024Z,2.17
2023-04-28T19:11:19.731Z,1.10
2023-04-28T19:13:46.481Z,1.35
2023-04-28T19:16:15.368Z,1.10
2023-04-28T19:18:42.938Z,1.80
2023-04-28T19:21:12.123Z,0.60
2023-04-28T19:23:41.275Z,0.80
2023-04-28T19:26:10.572Z,0.93
2023-04-28T19:28:37.298Z,1.13
2023-04-28T19:31:08.477Z,0.68
2023-04-28T19:33:35.316Z,1.75
2023-04-28T19:36:03.213Z,1.15
2023-04-28T19:38:30.000Z,1.17
2023-04-28T19:41:02.534Z,0.60
2023-04-28T19:43:31.631Z,0.90
2023-04-28T19:45:58.465Z,1.02
2023-04-28T19:48:26.230Z,0.70
2023-04-28T19:50:53.047Z,0.52
2023-04-28T19:53:19.922Z,0.68
2023-04-28T19:55:46.892Z,0.70
2023-04-28T19:58:17.276Z,1.08
2023-04-28T20:00:47.760Z,1.10
2023-04-28T20:03:14.916Z,3.22
2023-04-28T20:05:47.010Z,0.90
2023-04-28T20:08:13.812Z,0.90
2023-04-28T20:10:40.660Z,0.70
2023-04-28T20:13:07.655Z,0.80
2023-04-28T20:15:34.562Z,0.70
2023-04-28T20:18:01.805Z,0.85
2023-04-28T20:20:28.751Z,0.60
2023-04-28T20:22:55.490Z,0.90
2023-04-28T20:25:22.735Z,1.95
2023-04-28T20:27:49.876Z,1.83
2023-04-28T20:30:17.020Z,2.05
2023-04-28T20:32:44.377Z,0.70
2023-04-28T20:35:14.064Z,0.90
2023-04-28T20:37:41.534Z,1.10
2023-04-28T20:40:10.418Z,1.10
2023-04-28T20:42:37.500Z,1.20
2023-04-28T20:45:04.810Z,0.82
2023-04-28T20:47:34.431Z,1.63
2023-04-28T20:50:01.555Z,0.95
2023-04-28T20:52:28.825Z,2.28
2023-04-28T20:54:56.973Z,0.82
2023-04-28T20:57:24.082Z,1.10
2023-04-28T20:59:51.393Z,1.83
2023-04-28T21:02:18.800Z,1.27
2023-04-28T21:04:46.025Z,1.60
2023-04-28T21:07:13.406Z,1.13
2023-04-28T21:09:42.075Z,1.02
2023-04-28T21:12:11.820Z,1.33
2023-04-28T21:17:06.047Z,0.95
2023-04-28T21:19:33.326Z,1.63
2023-04-28T21:22:04.203Z,1.20
2023-04-28T21:24:31.274Z,1.98
2023-04-28T21:26:59.559Z,1.10
2023-04-28T21:29:27.527Z,1.45
2023-04-28T21:31:56.959Z,1.33
2023-04-28T21:34:24.134Z,3.40
2023-04-28T21:36:51.306Z,1.00
2023-04-28T21:39:18.470Z,1.55
2023-04-28T21:41:45.605Z,1.25
2023-04-28T21:44:13.130Z,1.17
2023-04-28T21:46:40.218Z,0.52
2023-04-28T21:49:07.713Z,2.20
2023-04-28T21:51:34.883Z,1.73
2023-04-28T21:54:03.048Z,0.95
2023-04-28T21:56:30.125Z,0.90
2023-04-28T21:58:57.285Z,3.58
2023-04-28T22:01:24.474Z,1.00
2023-04-28T22:03:53.971Z,2.22
2023-04-28T22:06:21.450Z,1.02
2023-04-28T22:08:48.913Z,2.13
2023-04-28T22:11:16.108Z,1.48
2023-04-28T22:13:43.219Z,1.02
2023-04-28T22:16:12.063Z,1.00
2023-04-28T22:18:39.176Z,0.90
2023-04-28T22:21:07.852Z,1.95
2023-04-28T22:23:35.032Z,1.27
2023-04-28T22:26:02.291Z,1.27
2023-04-28T22:28:29.473Z,1.30
2023-04-28T22:30:57.240Z,2.35
2023-04-28T22:33:24.326Z,1.50
2023-04-28T22:35:53.643Z,1.48
2023-04-28T22:38:20.866Z,1.45
2023-04-28T22:40:47.956Z,1.85
2023-04-28T22:43:15.045Z,1.30
2023-04-28T22:45:45.538Z,1.23
2023-04-28T22:48:15.141Z,1.55
2023-04-28T22:50:42.341Z,1.60
2023-04-28T22:53:12.101Z,2.13
2023-04-28T22:58:07.078Z,3.42
2023-04-28T23:00:35.649Z,1.83
2023-04-28T23:03:04.560Z,1.92
2023-04-28T23:05:31.820Z,2.65
2023-04-28T23:07:58.940Z,1.80
2023-04-28T23:10:26.097Z,1.98
2023-04-28T23:12:53.196Z,2.85
2023-04-28T23:15:22.617Z,1.90
2023-04-28T23:17:49.798Z,2.13
2023-04-28T23:20:19.460Z,2.40
2023-04-28T23:22:46.590Z,2.72
2023-04-28T23:25:13.737Z,2.67
2023-04-28T23:27:43.451Z,2.38
2023-04-28T23:32:38.534Z,2.38
2023-04-28T23:35:05.977Z,2.80
2023-04-28T23:37:33.085Z,4.15
2023-04-28T23:40:03.485Z,5.70
2023-04-28T23:42:30.797Z,3.80
2023-04-28T23:44:58.241Z,3.97
2023-04-28T23:47:25.393Z,4.28
2023-04-28T23:49:52.796Z,5.30
2023-04-28T23:52:20.036Z,3.95
2023-04-28T23:54:47.182Z,4.70
2023-04-28T23:57:14.310Z,5.05
2023-04-28T23:59:41.425Z,7.18
